Time;durP1;ratioP1;P1;durP2;ratioP2;P2;SDS_P1;SDS_P2;PMS_P1;PMS_P2;Temp;Humidity;BMP_temperature;BMP_pressure;BME280_temperature;BME280_humidity;BME280_pressure;Samples;Min_cycle;Max_cycle;Signal;HPM_P1;HPM_P2
2022/06/25 00:01:09;;;;;;;5.28;3.95;;;;;;;16.64;100.00;100170.72;5066528;28;20112;-71
2022/06/25 00:03:35;;;;;;;4.97;3.30;;;;;;;16.63;100.00;100164.53;5065708;28;20029;-70
2022/06/25 00:06:01;;;;;;;4.32;3.35;;;;;;;16.63;100.00;100163.72;5067359;28;20044;-70
2022/06/25 00:08:26;;;;;;;5.32;4.13;;;;;;;16.63;100.00;100164.53;5066596;28;20059;-70
2022/06/25 00:10:54;;;;;;;4.00;3.60;;;;;;;16.64;100.00;100160.03;5060675;28;20037;-73
2022/06/25 00:13:20;;;;;;;6.15;3.72;;;;;;;16.65;100.00;100162.50;5055694;28;20032;-73
2022/06/25 00:15:46;;;;;;;3.63;3.33;;;;;;;16.67;100.00;100170.31;5067262;28;20119;-72
2022/06/25 00:18:12;;;;;;;4.72;3.60;;;;;;;16.70;100.00;100167.22;5047032;28;20311;-72
2022/06/25 00:20:37;;;;;;;4.70;4.15;;;;;;;16.72;100.00;100170.53;5047786;28;20042;-72
2022/06/25 00:23:03;;;;;;;4.40;3.90;;;;;;;16.75;100.00;100175.44;5051523;28;20448;-72
2022/06/25 00:25:29;;;;;;;3.92;3.53;;;;;;;16.77;100.00;100178.75;5050736;28;20061;-72
2022/06/25 00:27:54;;;;;;;4.45;3.85;;;;;;;16.79;100.00;100178.59;5048739;28;20502;-73
2022/06/25 00:30:20;;;;;;;4.03;3.42;;;;;;;16.84;100.00;100186.81;5044605;28;20052;-72
2022/06/25 00:32:45;;;;;;;4.15;3.60;;;;;;;16.85;100.00;100191.13;5046383;28;20298;-72
2022/06/25 00:35:11;;;;;;;4.53;4.13;;;;;;;16.86;100.00;100187.44;5045578;28;20386;-73
2022/06/25 00:37:36;;;;;;;4.40;4.00;;;;;;;16.88;100.00;100188.88;5049231;28;20124;-72
2022/06/25 00:40:03;;;;;;;4.47;4.07;;;;;;;16.88;100.00;100196.09;5038216;28;20028;-73
2022/06/25 00:42:28;;;;;;;5.28;4.78;;;;;;;16.87;100.00;100192.56;5040150;28;20033;-73
2022/06/25 00:44:55;;;;;;;4.50;4.10;;;;;;;16.88;100.00;100193.41;5040817;28;20052;-73
2022/06/25 00:47:21;;;;;;;4.43;4.03;;;;;;;16.89;100.00;100192.38;5049886;28;20128;-73
2022/06/25 00:49:46;;;;;;;6.22;3.83;;;;;;;16.87;100.00;100191.75;5050361;28;20033;-73
2022/06/25 00:52:17;;;;;;;5.05;3.90;;;;;;;16.85;100.00;100197.31;5042123;28;20111;-73
2022/06/25 00:54:49;;;;;;;4.88;3.67;;;;;;;16.83;100.00;100193.16;5044684;28;20123;-73
2022/06/25 00:57:18;;;;;;;5.35;3.95;;;;;;;16.80;100.00;100189.06;5042135;28;20080;-73
2022/06/25 00:59:48;;;;;;;4.30;3.53;;;;;;;16.77;100.00;100192.91;5043415;28;20045;-73
2022/06/25 01:02:14;;;;;;;5.32;3.25;;;;;;;16.76;100.00;100190.47;5038919;28;20044;-73
2022/06/25 01:04:39;;;;;;;4.10;3.70;;;;;;;16.74;100.00;100192.50;5041485;28;20100;-72
2022/06/25 01:07:07;;;;;;;4.40;3.53;;;;;;;16.70;100.00;100192.06;5043483;28;20502;-73
2022/06/25 01:09:32;;;;;;;4.05;3.65;;;;;;;16.70;100.00;100192.06;5038875;28;20049;-73
2022/06/25 01:11:58;;;;;;;3.75;3.22;;;;;;;16.69;100.00;100195.78;5042301;28;20551;-73
2022/06/25 01:14:23;;;;;;;4.30;3.17;;;;;;;16.69;100.00;100200.31;5036490;28;20041;-73
2022/06/25 01:16:48;;;;;;;5.57;4.65;;;;;;;16.68;100.00;100198.63;5038301;28;20025;-72
2022/06/25 01:19:14;;;;;;;3.90;3.40;;;;;;;16.70;100.00;100201.94;5041182;28;20041;-73
2022/06/25 01:21:41;;;;;;;4.47;3.40;;;;;;;16.67;100.00;100205.84;5042971;28;20037;-73
2022/06/25 01:24:07;;;;;;;3.88;3.10;;;;;;;16.67;100.00;100210.34;5033355;28;20063;-73
2022/06/25 01:26:34;;;;;;;3.88;3.00;;;;;;;16.64;100.00;100208.91;5047687;28;20066;-73
2022/06/25 01:29:00;;;;;;;5.18;3.80;;;;;;;16.61;99.99;100209.28;5039810;28;20313;-73
2022/06/25 01:31:25;;;;;;;5.28;3.83;;;;;;;16.61;100.00;100203.94;5040457;28;20574;-73
2022/06/25 01:33:51;;;;;;;4.80;4.03;;;;;;;16.62;100.00;100210.13;5043182;28;20029;-73
2022/06/25 01:36:16;;;;;;;6.55;4.05;;;;;;;16.63;100.00;100209.91;5040276;28;20517;-72
2022/06/25 01:38:42;;;;;;;5.53;3.97;;;;;;;16.61;100.00;100211.13;5039214;28;20116;-71
2022/06/25 01:41:07;;;;;;;5.20;4.03;;;;;;;16.60;100.00;100207.66;5042857;28;20033;-72
2022/06/25 01:43:33;;;;;;;4.90;4.03;;;;;;;16.60;100.00;100206.84;5042089;28;20505;-70
2022/06/25 01:45:58;;;;;;;6.95;5.35;;;;;;;16.57;100.00;100208.06;5042970;28;20041;-72
2022/06/25 01:48:23;;;;;;;6.13;5.10;;;;;;;16.57;100.00;100213.41;5042529;28;20044;-70
2022/06/25 01:50:49;;;;;;;7.40;5.30;;;;;;;16.57;100.00;100210.72;5049387;28;20029;-70
2022/06/25 01:53:14;;;;;;;6.75;5.13;;;;;;;16.56;100.00;100209.91;5042066;28;20038;-70
2022/06/25 01:55:39;;;;;;;7.25;5.20;;;;;;;16.56;100.00;100212.56;5038054;28;20029;-69
2022/06/25 01:58:05;;;;;;;7.32;5.53;;;;;;;16.55;100.00;100207.44;5038142;28;20508;-72
2022/06/25 02:00:31;;;;;;;5.22;4.72;;;;;;;16.53;100.00;100209.47;5045401;28;20529;-72
2022/06/25 02:02:57;;;;;;;6.45;4.78;;;;;;;16.51;100.00;100215.00;5076195;28;20409;-72
2022/06/25 02:08:10;;;;;;;5.53;4.30;;;;;;;16.52;100.00;100207.84;5044620;28;20398;-72
2022/06/25 02:10:36;;;;;;;5.53;4.95;;;;;;;16.51;100.00;100211.50;5041356;28;20025;-72
2022/06/25 02:13:01;;;;;;;4.68;4.10;;;;;;;16.50;100.00;100207.19;5057443;28;20032;-70
2022/06/25 02:15:26;;;;;;;4.72;3.80;;;;;;;16.49;100.00;100211.72;5036945;28;20082;-70
2022/06/25 02:17:52;;;;;;;5.13;3.92;;;;;;;16.50;100.00;100221.38;5035079;28;20417;-71
2022/06/25 02:20:17;;;;;;;5.15;4.03;;;;;;;16.48;100.00;100214.56;5031527;28;20056;-72
2022/06/25 02:22:43;;;;;;;4.75;3.97;;;;;;;16.44;100.00;100213.31;5050265;28;20112;-70
2022/06/25 02:25:08;;;;;;;5.20;3.97;;;;;;;16.46;100.00;100216.63;5065096;28;20098;-72
2022/06/25 02:27:34;;;;;;;5.65;4.45;;;;;;;16.43;100.00;100217.03;5065265;28;20032;-70
2022/06/25 02:30:00;;;;;;;5.00;4.50;;;;;;;16.42;100.00;100220.69;5065816;28;20032;-72
2022/06/25 02:32:25;;;;;;;5.45;4.35;;;;;;;16.40;100.00;100214.72;5068151;28;20029;-72
2022/06/25 02:34:50;;;;;;;5.20;3.75;;;;;;;16.38;100.00;100206.94;5051914;28;20052;-72
2022/06/25 02:37:16;;;;;;;6.00;4.13;;;;;;;16.37;100.00;100207.94;5066303;28;20186;-72
2022/06/25 02:39:41;;;;;;;6.30;4.05;;;;;;;16.35;100.00;100218.84;5067975;28;20044;-72
2022/06/25 02:42:06;;;;;;;5.72;4.43;;;;;;;16.33;100.00;100222.72;5067260;28;20032;-70
2022/06/25 02:44:32;;;;;;;5.93;4.30;;;;;;;16.30;100.00;100217.75;5066709;28;20052;-72
2022/06/25 02:46:57;;;;;;;6.30;4.13;;;;;;;16.29;100.00;100222.28;5073969;28;20505;-70
2022/06/25 02:49:22;;;;;;;5.40;3.42;;;;;;;16.26;100.00;100228.00;5071082;28;20047;-70
2022/06/25 02:51:48;;;;;;;6.03;4.13;;;;;;;16.24;100.00;100235.38;5067618;28;20040;-70
2022/06/25 02:54:13;;;;;;;5.80;4.38;;;;;;;16.19;100.00;100224.47;5068631;28;20032;-71
2022/06/25 02:59:22;;;;;;;5.38;3.88;;;;;;;16.17;100.00;100234.53;5062524;28;20047;-71
2022/06/25 03:01:47;;;;;;;5.82;4.05;;;;;;;16.16;100.00;100238.22;5067621;28;20032;-73
2022/06/25 03:04:13;;;;;;;4.93;3.35;;;;;;;16.14;100.00;100224.25;5066283;28;20392;-74
2022/06/25 03:06:38;;;;;;;4.45;3.88;;;;;;;16.12;100.00;100228.94;5066398;28;20042;-74
2022/06/25 03:09:05;;;;;;;4.80;3.70;;;;;;;16.11;100.00;100230.81;5066474;28;20120;-74
2022/06/25 03:11:30;;;;;;;6.43;3.50;;;;;;;16.11;100.00;100229.94;5068338;28;20052;-73
2022/06/25 03:13:56;;;;;;;5.88;3.50;;;;;;;16.09;100.00;100232.84;5066417;28;20053;-73
2022/06/25 03:16:21;;;;;;;3.72;3.10;;;;;;;16.10;100.00;100230.97;5067891;28;20099;-73
2022/06/25 03:18:46;;;;;;;6.47;3.58;;;;;;;16.10;100.00;100236.31;5067178;28;20455;-73
2022/06/25 03:21:11;;;;;;;4.50;2.85;;;;;;;16.08;100.00;100239.16;5068478;28;20045;-73
2022/06/25 03:23:37;;;;;;;3.30;2.80;;;;;;;16.07;100.00;100240.19;5066436;28;20036;-73
2022/06/25 03:26:02;;;;;;;3.40;2.92;;;;;;;16.05;100.00;100236.09;5067871;28;20410;-70
2022/06/25 03:28:27;;;;;;;4.22;3.45;;;;;;;16.03;100.00;100244.28;5066846;28;20043;-71
2022/06/25 03:30:53;;;;;;;5.00;3.50;;;;;;;16.05;100.00;100244.91;5066372;28;20632;-73
2022/06/25 03:33:18;;;;;;;3.70;3.22;;;;;;;16.05;100.00;100244.09;5066780;28;20504;-74
2022/06/25 03:35:43;;;;;;;4.32;3.05;;;;;;;16.04;100.00;100239.75;5066803;28;20291;-73
2022/06/25 03:38:09;;;;;;;3.00;2.60;;;;;;;16.01;100.00;100246.31;5066090;28;20375;-73
2022/06/25 03:40:34;;;;;;;3.40;2.60;;;;;;;16.01;100.00;100256.16;5065789;28;20047;-74
2022/06/25 03:43:00;;;;;;;3.95;2.85;;;;;;;15.98;100.00;100252.03;5054482;28;20036;-73
2022/06/25 03:45:26;;;;;;;4.20;2.70;;;;;;;15.98;100.00;100248.53;5066194;28;20039;-73
2022/06/25 03:47:51;;;;;;;4.32;2.58;;;;;;;15.99;100.00;100244.84;5067046;28;20115;-73
2022/06/25 03:50:21;;;;;;;2.92;2.40;;;;;;;15.99;100.00;100253.66;5066111;28;20033;-74
2022/06/25 03:52:48;;;;;;;3.30;2.80;;;;;;;16.01;100.00;100256.97;5064317;28;20063;-74
2022/06/25 03:55:14;;;;;;;3.92;2.88;;;;;;;16.02;100.00;100263.16;5067537;28;20089;-73
2022/06/25 03:57:39;;;;;;;4.45;2.80;;;;;;;16.03;100.00;100259.44;5066400;28;20439;-73
2022/06/25 04:00:06;;;;;;;4.30;3.90;;;;;;;16.03;100.00;100259.44;5065925;28;20118;-71
2022/06/25 04:02:32;;;;;;;9.40;3.90;;;;;;;16.06;100.00;100267.06;5065989;28;20040;-73
2022/06/25 04:04:57;;;;;;;5.05;3.58;;;;;;;16.08;100.00;100259.69;5066098;28;20493;-73
2022/06/25 04:07:22;;;;;;;5.50;3.10;;;;;;;16.09;100.00;100267.50;5067032;28;20029;-73
2022/06/25 04:09:48;;;;;;;4.23;3.40;;;;;;;16.11;100.00;100261.97;5066197;28;20040;-71
2022/06/25 04:12:13;;;;;;;4.20;3.50;;;;;;;16.10;100.00;100269.16;5065867;28;20301;-73
2022/06/25 04:14:39;;;;;;;3.60;3.30;;;;;;;16.13;100.00;100267.94;5065137;28;20062;-73
2022/06/25 04:17:06;;;;;;;3.97;3.08;;;;;;;16.11;100.00;100265.47;5066990;28;20044;-73
2022/06/25 04:19:39;;;;;;;5.72;3.90;;;;;;;16.14;100.00;100274.94;5066540;28;20036;-71
2022/06/25 04:22:05;;;;;;;4.53;3.53;;;;;;;16.18;100.00;100267.34;5067016;28;20036;-73
2022/06/25 04:24:31;;;;;;;4.35;3.58;;;;;;;16.20;100.00;100271.47;5044806;28;20480;-73
2022/06/25 04:26:56;;;;;;;4.47;3.30;;;;;;;16.26;100.00;100269.88;5047366;28;20148;-73
2022/06/25 04:29:22;;;;;;;4.20;3.30;;;;;;;16.27;100.00;100272.34;5045311;28;20486;-71
2022/06/25 04:31:47;;;;;;;3.17;2.83;;;;;;;16.33;100.00;100278.75;5048343;28;20291;-73
2022/06/25 04:34:12;;;;;;;3.13;2.15;;;;;;;16.35;100.00;100274.88;5081692;28;20060;-73
2022/06/25 04:36:38;;;;;;;4.07;2.70;;;;;;;16.39;100.00;100275.28;5037385;28;20163;-73
2022/06/25 04:39:03;;;;;;;4.35;3.20;;;;;;;16.44;100.00;100269.38;5046986;28;20036;-73
2022/06/25 04:41:28;;;;;;;7.72;3.30;;;;;;;16.48;100.00;100268.78;5041037;28;20041;-73
2022/06/25 04:43:54;;;;;;;4.45;3.00;;;;;;;16.52;100.00;100280.72;5038576;28;20150;-73
2022/06/25 04:46:19;;;;;;;4.18;2.75;;;;;;;16.59;100.00;100286.09;5033636;28;20071;-73
2022/06/25 04:48:45;;;;;;;6.10;3.45;;;;;;;16.61;100.00;100284.03;5031884;28;20060;-73
2022/06/25 04:51:10;;;;;;;3.97;2.80;;;;;;;16.66;99.94;100292.28;5040941;28;20040;-73
2022/06/25 04:53:55;;;;;;;4.03;3.20;;;;;;;16.70;99.55;100287.38;5039854;28;20029;-72
2022/06/25 04:56:21;;;;;;;3.58;3.00;;;;;;;16.74;99.48;100289.44;5042057;28;20026;-73
2022/06/25 04:58:46;;;;;;;3.35;2.70;;;;;;;16.76;99.39;100287.41;5033183;28;20064;-73
2022/06/25 05:01:11;;;;;;;4.63;3.20;;;;;;;16.80;99.57;100289.72;5039209;28;20029;-72
2022/06/25 05:03:37;;;;;;;3.85;3.20;;;;;;;16.84;99.23;100289.13;5036087;28;20041;-73
2022/06/25 05:06:06;;;;;;;3.88;2.60;;;;;;;16.89;99.14;100294.69;5036375;28;20033;-73
2022/06/25 05:08:31;;;;;;;3.22;2.75;;;;;;;16.94;98.62;100297.56;5062335;28;20028;-73
2022/06/25 05:10:57;;;;;;;4.22;2.95;;;;;;;16.99;98.32;100296.97;5063352;28;20378;-73
2022/06/25 05:13:22;;;;;;;3.00;2.70;;;;;;;17.04;98.12;100291.03;5065881;28;20028;-73
2022/06/25 05:15:47;;;;;;;4.90;2.70;;;;;;;17.07;98.35;100296.81;5064685;28;20771;-73
2022/06/25 05:18:13;;;;;;;3.00;2.70;;;;;;;17.15;97.95;100303.81;5066372;28;20039;-73
2022/06/25 05:20:43;;;;;;;3.25;2.55;;;;;;;17.18;97.55;100301.59;5064274;28;20037;-73
2022/06/25 05:23:09;;;;;;;3.97;2.40;;;;;;;17.24;97.51;100312.50;5066537;28;20032;-73
2022/06/25 05:25:35;;;;;;;5.82;2.75;;;;;;;17.30;97.04;100314.34;5066335;28;20136;-73
2022/06/25 05:28:01;;;;;;;4.28;2.60;;;;;;;17.36;96.76;100313.56;5066277;28;20060;-73
2022/06/25 05:30:26;;;;;;;3.03;2.42;;;;;;;17.41;96.63;100309.25;5064153;28;20064;-70
2022/06/25 05:32:52;;;;;;;3.55;2.80;;;;;;;17.46;96.27;100314.00;5068708;28;20405;-71
2022/06/25 05:35:17;;;;;;;4.80;2.50;;;;;;;17.53;95.91;100320.16;5069838;28;20032;-71
2022/06/25 05:37:43;;;;;;;4.32;2.50;;;;;;;17.58;95.43;100314.22;5068119;28;20454;-71
2022/06/25 05:40:09;;;;;;;4.18;2.25;;;;;;;17.65;95.22;100316.91;5069361;28;20124;-71
2022/06/25 05:42:36;;;;;;;4.05;2.45;;;;;;;17.69;94.66;100310.97;5069709;28;20400;-72
2022/06/25 05:45:02;;;;;;;6.40;2.42;;;;;;;17.82;94.92;100319.00;5068983;28;20059;-71
2022/06/25 05:47:27;;;;;;;5.63;2.42;;;;;;;17.96;93.95;100321.69;5069898;28;20048;-71
2022/06/25 05:49:53;;;;;;;3.10;2.08;;;;;;;18.10;93.27;100334.06;5069173;28;20041;-72
2022/06/25 05:52:18;;;;;;;4.60;2.17;;;;;;;18.34;92.35;100329.09;5070292;28;20396;-71
2022/06/25 05:54:43;;;;;;;2.80;1.80;;;;;;;18.71;91.98;100326.75;5069009;28;20036;-72
2022/06/25 05:57:08;;;;;;;2.63;1.80;;;;;;;19.07;90.56;100321.75;5068681;28;20462;-72
2022/06/25 05:59:34;;;;;;;3.55;2.00;;;;;;;19.48;89.72;100330.41;5070016;28;20082;-72
2022/06/25 06:01:59;;;;;;;2.97;1.80;;;;;;;19.76;87.21;100335.44;5068849;28;20032;-71
2022/06/25 06:04:25;;;;;;;3.05;1.60;;;;;;;19.97;84.91;100333.41;5069232;28;20044;-72
2022/06/25 06:06:51;;;;;;;2.67;1.90;;;;;;;20.19;83.29;100334.69;5068359;28;20049;-72
2022/06/25 06:09:16;;;;;;;3.08;1.83;;;;;;;20.37;82.32;100341.94;5069615;28;20037;-72
2022/06/25 06:11:41;;;;;;;4.15;1.70;;;;;;;20.62;82.10;100338.41;5069352;28;20078;-72
2022/06/25 06:14:07;;;;;;;2.60;1.70;;;;;;;20.89;82.22;100342.47;5068737;28;20377;-72
2022/06/25 06:16:33;;;;;;;3.30;1.50;;;;;;;21.18;81.70;100340.06;5068050;28;20068;-72
2022/06/25 06:18:58;;;;;;;2.05;1.20;;;;;;;21.48;81.22;100342.00;5067667;28;20028;-73
2022/06/25 06:21:23;;;;;;;1.92;1.38;;;;;;;21.75;80.21;100343.25;5068606;28;20037;-72
2022/06/25 06:23:48;;;;;;;2.35;1.30;;;;;;;21.92;78.53;100342.59;5066766;28;20043;-72
2022/06/25 06:26:14;;;;;;;1.77;1.25;;;;;;;22.18;78.50;100339.44;5069262;28;20097;-72
2022/06/25 06:28:39;;;;;;;2.17;1.10;;;;;;;22.42;77.17;100340.31;5067066;28;20033;-72
2022/06/25 06:31:04;;;;;;;2.83;1.42;;;;;;;22.53;74.94;100348.66;5067956;28;20517;-73
2022/06/25 06:33:30;;;;;;;2.88;1.40;;;;;;;22.63;73.46;100352.38;5068735;28;20032;-73
2022/06/25 06:35:55;;;;;;;2.10;1.10;;;;;;;22.74;73.64;100348.03;5069056;28;20037;-73
2022/06/25 06:38:20;;;;;;;2.28;1.25;;;;;;;22.86;72.59;100346.13;5070285;28;20489;-72
2022/06/25 06:40:45;;;;;;;2.90;1.43;;;;;;;23.01;71.70;100351.06;5068828;28;20096;-73
2022/06/25 06:43:11;;;;;;;3.00;1.13;;;;;;;23.23;70.84;100353.91;5068251;28;20372;-72
2022/06/25 06:45:36;;;;;;;1.40;1.00;;;;;;;23.37;69.59;100356.34;5080232;28;20317;-72
2022/06/25 06:48:02;;;;;;;1.60;1.10;;;;;;;23.58;69.50;100354.84;5070929;28;20032;-72
2022/06/25 06:50:27;;;;;;;2.17;1.17;;;;;;;23.61;68.05;100348.97;5070254;28;20040;-72
2022/06/25 06:52:52;;;;;;;3.05;1.00;;;;;;;23.73;68.14;100357.81;5067129;28;20078;-73
2022/06/25 06:55:18;;;;;;;2.25;1.10;;;;;;;23.89;66.86;100351.66;5068275;28;20039;-72
2022/06/25 06:57:43;;;;;;;1.23;0.90;;;;;;;24.11;66.82;100353.63;5068040;28;20125;-72
2022/06/25 07:00:09;;;;;;;1.10;0.80;;;;;;;24.33;66.71;100354.50;5068459;28;20032;-72
2022/06/25 07:02:34;;;;;;;2.88;0.90;;;;;;;24.54;66.02;100354.84;5068215;28;20282;-73
2022/06/25 07:05:00;;;;;;;2.80;1.08;;;;;;;24.65;64.98;100347.72;5067928;28;20067;-73
2022/06/25 07:07:25;;;;;;;1.10;0.80;;;;;;;24.82;65.01;100344.97;5068401;28;20043;-72
2022/06/25 07:09:51;;;;;;;2.58;0.98;;;;;;;24.98;64.61;100346.78;5067162;28;20044;-73
2022/06/25 07:12:16;;;;;;;1.35;0.90;;;;;;;25.12;63.32;100341.78;5067253;28;20024;-73
2022/06/25 07:14:41;;;;;;;1.92;0.93;;;;;;;25.22;62.37;100352.78;5066963;28;20039;-72
2022/06/25 07:17:07;;;;;;;1.10;0.70;;;;;;;25.29;62.18;100339.03;5065421;28;20072;-73
2022/06/25 07:19:32;;;;;;;1.73;1.02;;;;;;;25.35;61.18;100346.97;5067594;28;20043;-72
2022/06/25 07:21:57;;;;;;;0.75;0.60;;;;;;;25.46;61.84;100342.50;5067197;28;20493;-73
2022/06/25 07:24:23;;;;;;;1.85;0.90;;;;;;;25.53;60.14;100351.22;5066946;28;20045;-73
2022/06/25 07:26:49;;;;;;;3.05;1.20;;;;;;;25.54;59.58;100350.16;5067124;28;20528;-73
2022/06/25 07:29:15;;;;;;;2.45;0.93;;;;;;;25.62;59.94;100347.00;5066085;28;20044;-73
2022/06/25 07:31:40;;;;;;;3.30;0.90;;;;;;;25.71;58.88;100350.03;5065357;28;20096;-73
2022/06/25 07:34:05;;;;;;;1.60;0.90;;;;;;;25.90;58.90;100347.81;5068646;28;20032;-73
2022/06/25 07:36:31;;;;;;;1.40;0.93;;;;;;;26.17;57.99;100352.34;5067680;28;20029;-73
2022/06/25 07:38:56;;;;;;;2.35;1.05;;;;;;;26.37;56.83;100344.38;5067327;28;20032;-73
2022/06/25 07:41:22;;;;;;;0.77;0.70;;;;;;;26.64;56.55;100335.31;5067690;28;20036;-73
2022/06/25 07:43:47;;;;;;;2.20;0.80;;;;;;;26.77;54.69;100340.28;5067462;28;20421;-74
2022/06/25 07:46:12;;;;;;;2.03;0.90;;;;;;;26.83;55.15;100339.22;5066296;28;20036;-73
2022/06/25 07:48:38;;;;;;;1.98;0.90;;;;;;;27.08;53.94;100337.72;5066939;28;20039;-73
2022/06/25 07:53:48;;;;;;;1.35;0.90;;;;;;;27.58;54.49;100328.06;5062229;28;20031;-73
2022/06/25 07:56:13;;;;;;;1.92;0.82;;;;;;;27.65;52.85;100323.19;5066905;28;20420;-73
2022/06/25 07:58:39;;;;;;;2.17;1.00;;;;;;;27.74;51.60;100334.31;5067448;28;20127;-73
2022/06/25 08:01:04;;;;;;;3.55;1.10;;;;;;;27.86;50.18;100334.91;5066392;28;20032;-73
2022/06/25 08:03:30;;;;;;;0.98;0.70;;;;;;;28.11;50.43;100334.09;5067111;28;20036;-74
2022/06/25 08:05:57;;;;;;;1.95;0.70;;;;;;;28.70;50.64;100323.63;5068271;28;20036;-74
2022/06/25 08:08:22;;;;;;;2.85;1.33;;;;;;;28.48;47.20;100315.81;5067058;28;20063;-73
2022/06/25 08:10:48;;;;;;;2.78;1.13;;;;;;;28.18;47.94;100317.50;5067511;28;20071;-74
2022/06/25 08:13:13;;;;;;;2.33;1.00;;;;;;;27.79;49.18;100318.03;5066619;28;20466;-73
2022/06/25 08:15:38;;;;;;;3.30;1.00;;;;;;;28.22;49.25;100325.91;5067424;28;20093;-73
2022/06/25 08:18:04;;;;;;;1.73;0.98;;;;;;;28.59;48.15;100320.97;5066500;28;20282;-73
2022/06/25 08:20:29;;;;;;;1.35;0.85;;;;;;;28.95;47.39;100314.56;5068232;28;20397;-73
2022/06/25 08:22:54;;;;;;;2.67;1.33;;;;;;;29.18;44.93;100315.84;5064762;28;20116;-74
2022/06/25 08:25:20;;;;;;;3.10;0.82;;;;;;;29.37;46.06;100319.53;5070199;28;20044;-73
2022/06/25 08:27:45;;;;;;;1.30;0.90;;;;;;;29.75;44.94;100316.31;5071461;28;20468;-73
2022/06/25 08:30:11;;;;;;;2.07;0.90;;;;;;;29.87;44.28;100318.66;5070480;28;20028;-74
2022/06/25 08:32:36;;;;;;;1.40;0.90;;;;;;;30.25;43.61;100317.78;5068213;28;20338;-73
2022/06/25 08:35:01;;;;;;;3.47;1.10;;;;;;;30.65;42.69;100326.63;5068464;28;20078;-73
2022/06/25 08:37:27;;;;;;;1.30;0.85;;;;;;;30.98;41.31;100321.31;5067215;28;20025;-74
2022/06/25 08:39:52;;;;;;;1.52;0.90;;;;;;;30.77;42.52;100325.38;5066588;28;20053;-74
2022/06/25 08:42:17;;;;;;;1.60;0.80;;;;;;;31.40;42.24;100318.88;5066427;28;20186;-74
2022/06/25 08:44:42;;;;;;;1.55;0.90;;;;;;;31.82;41.25;100325.31;5067649;28;20291;-73
2022/06/25 08:47:09;;;;;;;1.90;0.82;;;;;;;31.99;39.82;100320.13;5070439;28;20037;-75
2022/06/25 08:49:35;;;;;;;1.65;0.70;;;;;;;32.73;39.46;100320.13;5069507;28;20120;-74
2022/06/25 08:52:02;;;;;;;1.67;0.85;;;;;;;33.27;38.32;100320.34;5064636;28;20039;-74
2022/06/25 08:54:28;;;;;;;2.28;0.90;;;;;;;33.74;36.34;100318.16;5064314;28;20141;-74
2022/06/25 08:56:54;;;;;;;0.90;0.60;;;;;;;34.01;35.83;100313.63;5066333;28;20120;-74
2022/06/25 08:59:19;;;;;;;1.50;0.70;;;;;;;33.71;36.01;100307.81;5066633;28;20033;-74
2022/06/25 09:01:45;;;;;;;2.90;1.13;;;;;;;33.24;34.59;100298.25;5067179;28;20060;-74
2022/06/25 09:04:11;;;;;;;2.55;0.90;;;;;;;32.48;36.42;100294.03;5064509;28;21688;-74
2022/06/25 09:06:36;;;;;;;0.65;0.60;;;;;;;33.34;36.69;100298.00;5067952;28;20040;-74
2022/06/25 09:09:11;;;;;;;1.63;0.80;;;;;;;32.80;37.52;100297.81;5069633;28;20047;-74
2022/06/25 09:12:07;;;;;;;1.83;0.82;;;;;;;32.10;37.78;100288.72;5070627;28;20043;-74
2022/06/25 09:14:35;;;;;;;1.40;0.80;;;;;;;30.95;39.62;100282.88;5067910;28;20029;-74
2022/06/25 09:17:09;;;;;;;1.13;0.70;;;;;;;29.81;41.06;100293.34;5070291;28;20409;-74
2022/06/25 09:19:41;;;;;;;1.25;0.73;;;;;;;29.25;41.70;100286.41;5069901;28;20041;-73
2022/06/25 09:22:12;;;;;;;2.92;0.90;;;;;;;29.97;40.90;100280.41;5068436;28;20299;-74
2022/06/25 09:24:53;;;;;;;0.85;0.60;;;;;;;32.02;38.50;100292.19;5068802;28;20407;-74
2022/06/25 09:27:33;;;;;;;0.95;0.57;;;;;;;33.20;36.54;100289.81;5070923;28;20917;-74
2022/06/25 09:30:08;;;;;;;1.10;0.80;;;;;;;33.90;35.05;100293.91;5069507;28;20040;-74
2022/06/25 09:32:45;;;;;;;1.48;0.73;;;;;;;34.82;32.69;100291.38;5069356;28;20037;-74
2022/06/25 09:35:12;;;;;;;1.02;0.60;;;;;;;35.61;33.20;100295.03;5068726;28;20036;-74
2022/06/25 09:37:39;;;;;;;1.30;0.93;;;;;;;36.24;31.99;100289.03;5069920;28;20067;-74
2022/06/25 09:40:05;;;;;;;1.15;0.77;;;;;;;34.79;32.91;100285.72;5068050;28;20056;-74
2022/06/25 09:42:32;;;;;;;;;;;;;;;33.73;35.38;100286.38;5052018;28;20033;-74
2022/06/25 09:45:05;;;;;;;1.40;0.65;;;;;;;34.93;33.41;100286.41;5056744;28;19917;-76
2022/06/25 09:47:34;;;;;;;1.30;0.70;;;;;;;33.92;35.12;100279.84;5069685;28;20051;-74
2022/06/25 09:50:08;;;;;;;1.27;0.70;;;;;;;34.65;33.93;100285.84;5068652;28;20064;-74
2022/06/25 09:52:35;;;;;;;1.42;0.60;;;;;;;34.70;33.37;100282.94;5069080;28;20056;-75
2022/06/25 09:55:00;;;;;;;1.88;0.63;;;;;;;35.80;32.03;100280.88;5069096;28;20389;-75
2022/06/25 09:57:26;;;;;;;1.88;0.80;;;;;;;36.49;30.34;100285.31;5068896;28;20032;-75
2022/06/25 09:59:54;;;;;;;2.05;0.80;;;;;;;37.17;28.27;100287.22;5068823;28;20033;-74
2022/06/25 10:02:19;;;;;;;0.90;0.63;;;;;;;37.29;28.51;100273.47;5069015;28;20052;-74
2022/06/25 10:04:46;;;;;;;2.42;0.80;;;;;;;37.41;28.27;100276.28;5070007;28;20064;-75
2022/06/25 10:07:15;;;;;;;1.00;0.52;;;;;;;37.75;28.15;100207.28;5073369;28;20054;-74
2022/06/25 10:09:41;;;;;;;1.08;0.70;;;;;;;38.43;27.68;100267.53;5068399;28;20025;-75
2022/06/25 10:12:08;;;;;;;2.40;0.90;;;;;;;38.95;26.67;100235.56;5066753;28;20036;-74
2022/06/25 10:14:36;;;;;;;2.22;0.70;;;;;;;39.13;26.38;100202.91;5069264;28;20056;-74
2022/06/25 10:17:03;;;;;;;1.90;0.73;;;;;;;39.38;25.16;100193.34;5067627;28;20513;-75
2022/06/25 10:19:31;;;;;;;2.55;0.77;;;;;;;39.43;24.73;100233.78;5069969;28;20029;-74
2022/06/25 10:21:58;;;;;;;1.25;0.70;;;;;;;37.45;25.91;100188.16;5071252;28;20116;-75
2022/06/25 10:24:24;;;;;;;1.52;0.60;;;;;;;36.20;28.00;100230.25;5068092;28;20086;-74
2022/06/25 10:26:50;;;;;;;2.08;0.60;;;;;;;37.49;27.06;100258.03;5068963;28;20044;-75
2022/06/25 10:29:29;;;;;;;1.73;0.63;;;;;;;38.06;25.98;100259.22;5067616;28;20037;-75
2022/06/25 10:32:12;;;;;;;0.98;0.60;;;;;;;38.49;24.76;100248.78;5068085;28;20062;-75
2022/06/25 10:34:37;;;;;;;1.42;0.70;;;;;;;38.61;24.91;100248.75;5064304;28;20033;-74
2022/06/25 10:37:03;;;;;;;2.00;0.60;;;;;;;38.63;23.78;100244.47;5066805;28;20052;-74
2022/06/25 10:39:28;;;;;;;1.90;0.80;;;;;;;38.40;24.74;100240.56;5068463;28;20056;-75
2022/06/25 10:45:05;;;;;;;1.77;0.73;;;;;;;39.70;23.24;100235.69;5057682;28;20070;-75
2022/06/25 10:47:52;;;;;;;0.63;0.47;;;;;;;40.65;23.61;100226.50;5067341;28;20029;-75
2022/06/25 10:50:21;;;;;;;1.05;0.60;;;;;;;41.06;21.89;100231.72;5069292;28;20072;-74
2022/06/25 10:53:01;;;;;;;1.73;0.63;;;;;;;41.51;21.26;100224.66;5066814;28;20044;-75
2022/06/25 10:55:32;;;;;;;0.82;0.50;;;;;;;41.71;21.90;100225.41;5067987;28;20485;-75
2022/06/25 10:58:11;;;;;;;1.33;0.50;;;;;;;41.73;20.47;100220.31;5067258;28;20762;-75
2022/06/25 11:00:55;;;;;;;1.67;0.70;;;;;;;41.69;20.37;100213.88;5062929;28;20032;-75
2022/06/25 11:03:27;;;;;;;0.70;0.50;;;;;;;41.96;20.73;100218.34;5047944;28;20445;-75
2022/06/25 11:05:53;;;;;;;0.88;0.57;;;;;;;42.27;20.54;100218.41;5048058;28;20131;-76
2022/06/25 11:08:18;;;;;;;0.73;0.50;;;;;;;41.99;20.14;100220.38;5046729;28;20619;-75
2022/06/25 11:10:43;;;;;;;0.80;0.50;;;;;;;42.08;20.12;100216.53;5047731;28;20764;-75
2022/06/25 11:13:09;;;;;;;3.83;0.63;;;;;;;42.37;20.34;100210.25;5086955;28;20505;-75
2022/06/25 11:15:38;;;;;;;1.27;0.43;;;;;;;42.80;19.68;100205.25;5074760;28;20282;-75
2022/06/25 11:18:08;;;;;;;1.45;0.70;;;;;;;42.90;19.31;100203.78;5065368;28;20036;-76
2022/06/25 11:20:36;;;;;;;0.98;0.50;;;;;;;42.82;19.91;100211.25;5047889;28;20044;-75
2022/06/25 11:23:02;;;;;;;0.73;0.47;;;;;;;42.84;20.53;100205.31;5046774;28;20064;-76
2022/06/25 11:31:14;;;;;;;1.25;0.50;;;;;;;44.00;17.72;100203.28;5069607;28;19969;-76
2022/06/25 11:33:40;;;;;;;1.30;0.70;;;;;;;43.38;18.58;100205.91;5068388;28;20032;-76
2022/06/25 11:36:10;;;;;;;2.20;0.60;;;;;;;42.98;17.85;100202.69;5068165;28;20032;-75